createdAt,value
2019-01-03T00:00:00.335Z,0
2019-01-03T00:01:01.744Z,0
2019-01-03T00:02:03.119Z,0
2019-01-03T00:03:04.551Z,0
2019-01-03T00:04:05.926Z,0
2019-01-03T00:05:07.357Z,0
2019-01-03T00:06:08.701Z,0
2019-01-03T00:07:10.105Z,0
2019-01-03T00:08:11.518Z,0
2019-01-03T00:09:12.902Z,0
2019-01-03T00:10:14.267Z,0
2019-01-03T00:11:15.649Z,0
2019-01-03T00:12:17.013Z,0
2019-01-03T00:13:18.379Z,0
2019-01-03T00:14:19.752Z,0
2019-01-03T00:15:21.129Z,0
2019-01-03T00:16:22.506Z,0
2019-01-03T00:17:23.875Z,0
2019-01-03T00:18:25.251Z,0
2019-01-03T00:19:26.623Z,0
2019-01-03T00:20:28.050Z,0
2019-01-03T00:21:29.419Z,0
2019-01-03T00:22:30.794Z,0
2019-01-03T00:23:32.164Z,0
2019-01-03T00:24:33.609Z,0
2019-01-03T00:25:34.996Z,0
2019-01-03T00:26:36.398Z,0
2019-01-03T00:27:37.844Z,0
2019-01-03T00:28:39.209Z,0
2019-01-03T00:29:40.578Z,0
2019-01-03T00:30:41.973Z,0
2019-01-03T00:31:43.381Z,0
2019-01-03T00:32:44.751Z,0
2019-01-03T00:33:46.118Z,0
2019-01-03T00:34:47.487Z,0
2019-01-03T00:35:48.960Z,0
2019-01-03T00:36:50.324Z,0
2019-01-03T00:37:51.714Z,0
2019-01-03T00:38:53.096Z,0
2019-01-03T00:39:54.458Z,0
2019-01-03T00:40:55.887Z,0
2019-01-03T00:41:57.279Z,0
2019-01-03T00:42:58.655Z,0
2019-01-03T00:44:00.030Z,0
2019-01-03T00:45:01.418Z,0
2019-01-03T00:46:02.786Z,0
2019-01-03T00:47:04.153Z,0
2019-01-03T00:48:05.546Z,0
2019-01-03T00:49:06.914Z,0
2019-01-03T00:50:08.304Z,0
2019-01-03T00:51:09.664Z,0
2019-01-03T00:52:11.049Z,0
2019-01-03T00:53:12.429Z,0
2019-01-03T00:54:13.861Z,0
2019-01-03T00:55:15.241Z,0
2019-01-03T00:56:16.608Z,0
2019-01-03T00:57:17.979Z,0
2019-01-03T00:58:19.383Z,0
2019-01-03T00:59:20.745Z,0
2019-01-03T01:00:22.124Z,0
2019-01-03T01:01:23.502Z,0
2019-01-03T01:02:24.870Z,0
2019-01-03T01:03:26.236Z,0
2019-01-03T01:04:27.602Z,0
2019-01-03T01:05:28.970Z,0
2019-01-03T01:06:30.345Z,0
2019-01-03T01:07:31.895Z,0
2019-01-03T01:08:33.287Z,0
2019-01-03T01:09:34.660Z,0
2019-01-03T01:10:36.020Z,0
2019-01-03T01:11:37.412Z,0
2019-01-03T01:12:38.793Z,0
2019-01-03T01:13:40.169Z,0
2019-01-03T01:14:41.666Z,0
2019-01-03T01:15:43.033Z,0
2019-01-03T01:16:44.428Z,0
2019-01-03T01:17:45.809Z,0
2019-01-03T01:18:47.208Z,0
2019-01-03T01:19:48.885Z,0
2019-01-03T01:20:50.263Z,0
2019-01-03T01:21:51.628Z,0
2019-01-03T01:22:52.996Z,0
2019-01-03T01:23:54.467Z,0
2019-01-03T01:24:55.866Z,0
2019-01-03T01:25:57.296Z,0
2019-01-03T01:26:58.673Z,0
2019-01-03T01:28:00.279Z,0
2019-01-03T01:29:01.785Z,0
2019-01-03T01:30:03.216Z,0
2019-01-03T01:31:04.636Z,0
2019-01-03T01:32:06.006Z,0
2019-01-03T01:33:07.410Z,0
2019-01-03T01:34:08.797Z,0
2019-01-03T01:35:10.176Z,0
2019-01-03T01:36:11.538Z,0
2019-01-03T01:37:13.533Z,0
2019-01-03T01:38:14.913Z,0
2019-01-03T01:39:16.314Z,0
2019-01-03T01:40:17.684Z,0
2019-01-03T01:41:19.064Z,0
2019-01-03T01:42:20.439Z,0
2019-01-03T01:43:21.815Z,0
2019-01-03T01:44:23.202Z,0
2019-01-03T01:45:24.575Z,0
2019-01-03T01:46:25.994Z,0
2019-01-03T01:47:27.402Z,0
2019-01-03T01:48:28.778Z,0
2019-01-03T01:49:30.165Z,0
2019-01-03T01:50:31.530Z,0
2019-01-03T01:51:32.898Z,0
2019-01-03T01:52:34.305Z,0
2019-01-03T01:53:35.721Z,0
2019-01-03T01:54:37.094Z,0
2019-01-03T01:55:38.489Z,0
2019-01-03T01:56:39.860Z,0
2019-01-03T01:57:41.227Z,0
2019-01-03T01:58:42.618Z,0
2019-01-03T01:59:43.990Z,0
2019-01-03T02:00:45.490Z,0
2019-01-03T02:01:46.859Z,0
2019-01-03T02:02:48.230Z,0
2019-01-03T02:03:49.626Z,0
2019-01-03T02:04:51.025Z,0
2019-01-03T02:05:52.367Z,0
2019-01-03T02:06:53.738Z,0
2019-01-03T02:07:55.108Z,0
2019-01-03T02:08:56.470Z,0
2019-01-03T02:09:57.842Z,0
2019-01-03T02:10:59.210Z,0
2019-01-03T02:12:00.577Z,0
2019-01-03T02:13:01.945Z,0
2019-01-03T02:14:03.314Z,0
2019-01-03T02:15:04.686Z,0
2019-01-03T02:16:06.060Z,0
2019-01-03T02:17:07.466Z,0
2019-01-03T02:18:08.875Z,0
2019-01-03T02:19:10.224Z,0
2019-01-03T02:20:11.613Z,0
2019-01-03T02:21:12.987Z,0
2019-01-03T02:22:14.376Z,0
2019-01-03T02:23:15.790Z,0
2019-01-03T02:24:17.182Z,0
2019-01-03T02:25:18.549Z,0
2019-01-03T02:26:19.907Z,0
2019-01-03T02:27:21.278Z,0
2019-01-03T02:28:22.656Z,0
2019-01-03T02:29:24.060Z,0
2019-01-03T02:30:25.449Z,0
2019-01-03T02:31:26.825Z,0
2019-01-03T02:32:28.189Z,0
2019-01-03T02:33:29.559Z,0
2019-01-03T02:34:30.936Z,0
2019-01-03T02:35:32.301Z,0
2019-01-03T02:36:33.679Z,0
2019-01-03T02:37:35.052Z,0
2019-01-03T02:38:36.414Z,0
2019-01-03T02:39:37.792Z,0
2019-01-03T02:40:39.169Z,0
2019-01-03T02:41:40.527Z,0
2019-01-03T02:42:41.900Z,0
2019-01-03T02:43:43.260Z,0
2019-01-03T02:44:44.651Z,0
2019-01-03T02:45:46.010Z,0
2019-01-03T02:46:47.377Z,0
2019-01-03T02:47:48.744Z,0
2019-01-03T02:48:50.156Z,0
2019-01-03T02:49:51.512Z,0
2019-01-03T02:50:52.898Z,0
2019-01-03T02:51:54.256Z,0
2019-01-03T02:52:55.615Z,0
2019-01-03T02:53:56.983Z,0
2019-01-03T02:54:58.374Z,0
2019-01-03T02:55:59.756Z,0
2019-01-03T02:57:01.117Z,0
2019-01-03T02:58:02.480Z,0
2019-01-03T02:59:03.926Z,0
2019-01-03T03:00:05.320Z,0
2019-01-03T03:01:06.686Z,0
2019-01-03T03:02:08.082Z,0
2019-01-03T03:03:09.459Z,0
2019-01-03T03:04:10.835Z,0
2019-01-03T03:05:12.200Z,0
2019-01-03T03:06:13.579Z,0
2019-01-03T03:07:14.954Z,0
2019-01-03T03:08:16.334Z,0
2019-01-03T03:09:17.696Z,0
2019-01-03T03:10:19.057Z,0
2019-01-03T03:11:20.429Z,0
2019-01-03T03:12:21.814Z,0
2019-01-03T03:13:23.195Z,0
2019-01-03T03:14:24.558Z,0
2019-01-03T03:15:25.934Z,0
2019-01-03T03:16:27.301Z,0
2019-01-03T03:17:28.675Z,0
2019-01-03T03:18:30.044Z,0
2019-01-03T03:19:31.412Z,0
2019-01-03T03:20:32.779Z,0
2019-01-03T03:21:34.219Z,0
2019-01-03T03:22:35.587Z,0
2019-01-03T03:23:36.964Z,0
2019-01-03T03:24:38.358Z,0
2019-01-03T03:25:39.722Z,0
2019-01-03T03:26:41.100Z,0
2019-01-03T03:27:42.469Z,0
2019-01-03T03:28:43.832Z,0
2019-01-03T03:29:45.203Z,0
2019-01-03T03:30:46.580Z,0
2019-01-03T03:31:47.954Z,0
2019-01-03T03:32:49.317Z,0
2019-01-03T03:33:50.686Z,0
2019-01-03T03:34:52.058Z,0
2019-01-03T03:35:53.427Z,0
2019-01-03T03:36:54.809Z,0
2019-01-03T03:37:56.175Z,0
2019-01-03T03:38:57.542Z,0
2019-01-03T03:39:58.915Z,0
2019-01-03T03:41:00.292Z,0
2019-01-03T03:42:01.668Z,0
2019-01-03T03:43:03.035Z,0
2019-01-03T03:44:04.411Z,0
2019-01-03T03:45:05.793Z,0
2019-01-03T03:46:07.156Z,0
2019-01-03T03:47:08.537Z,0
2019-01-03T03:48:09.909Z,0
2019-01-03T03:49:11.329Z,0
2019-01-03T03:50:12.701Z,0
2019-01-03T03:51:14.073Z,0
2019-01-03T03:52:15.446Z,0
2019-01-03T03:53:16.830Z,0
2019-01-03T03:54:18.187Z,0
2019-01-03T03:55:19.555Z,0
2019-01-03T03:56:20.925Z,0
2019-01-03T03:57:22.318Z,0
2019-01-03T03:58:23.670Z,0
2019-01-03T03:59:25.055Z,0
2019-01-03T04:00:26.427Z,0
2019-01-03T04:01:27.805Z,0
2019-01-03T04:02:29.165Z,0
2019-01-03T04:03:30.537Z,0
2019-01-03T04:04:31.901Z,0
2019-01-03T04:05:33.268Z,0
2019-01-03T04:06:34.635Z,0
2019-01-03T04:07:36.006Z,0
2019-01-03T04:08:38.682Z,0
2019-01-03T04:09:38.704Z,0
2019-01-03T04:10:40.086Z,0
2019-01-03T04:11:41.460Z,0
2019-01-03T04:12:42.827Z,0
2019-01-03T04:13:44.198Z,0
2019-01-03T04:14:45.564Z,0
2019-01-03T04:15:46.940Z,0
2019-01-03T04:16:48.303Z,0
2019-01-03T04:17:49.673Z,0
2019-01-03T04:18:51.035Z,0
2019-01-03T04:19:52.395Z,0
2019-01-03T04:20:53.785Z,0
2019-01-03T04:21:55.156Z,0
2019-01-03T04:22:56.613Z,0
2019-01-03T04:23:57.866Z,0
2019-01-03T04:24:59.244Z,0
2019-01-03T04:26:00.626Z,0
2019-01-03T04:27:01.983Z,0
2019-01-03T04:28:03.357Z,0
2019-01-03T04:29:04.722Z,0
2019-01-03T04:30:06.107Z,0
2019-01-03T04:31:07.502Z,0
2019-01-03T04:32:08.888Z,0
2019-01-03T04:33:10.259Z,0
2019-01-03T04:34:11.627Z,0
2019-01-03T04:35:12.991Z,0
2019-01-03T04:36:14.364Z,0
2019-01-03T04:37:15.817Z,0
2019-01-03T04:38:17.188Z,0
2019-01-03T04:39:18.576Z,0
2019-01-03T04:40:19.953Z,0
2019-01-03T04:41:21.337Z,0
2019-01-03T04:42:22.687Z,0
2019-01-03T04:43:24.065Z,0
2019-01-03T04:44:25.447Z,0
2019-01-03T04:45:26.883Z,0
2019-01-03T04:46:28.320Z,0
2019-01-03T04:47:29.711Z,0
2019-01-03T04:48:31.066Z,0
2019-01-03T04:49:32.442Z,0
2019-01-03T04:50:33.828Z,0
2019-01-03T04:51:35.195Z,0
2019-01-03T04:52:36.592Z,0
2019-01-03T04:53:37.952Z,0
2019-01-03T04:54:39.322Z,0
2019-01-03T04:55:40.689Z,0
2019-01-03T04:56:42.075Z,0
2019-01-03T04:57:43.467Z,0
2019-01-03T04:58:44.855Z,0
2019-01-03T04:59:46.221Z,0
2019-01-03T05:00:47.593Z,0
2019-01-03T05:01:48.970Z,0
2019-01-03T05:02:50.337Z,0
2019-01-03T05:03:51.702Z,0
2019-01-03T05:04:53.077Z,0
2019-01-03T05:05:54.455Z,0
2019-01-03T05:06:55.829Z,0
2019-01-03T05:07:57.585Z,0
2019-01-03T05:08:58.528Z,0
2019-01-03T05:09:59.912Z,0
2019-01-03T05:11:01.273Z,0
2019-01-03T05:12:02.636Z,0
2019-01-03T05:13:04.009Z,0
2019-01-03T05:14:05.399Z,0
2019-01-03T05:15:06.774Z,0
2019-01-03T05:16:08.188Z,0
2019-01-03T05:17:09.566Z,0
2019-01-03T05:18:10.931Z,0
2019-01-03T05:19:12.298Z,0
2019-01-03T05:20:13.663Z,0
2019-01-03T05:21:15.052Z,0
2019-01-03T05:22:16.431Z,0
2019-01-03T05:23:17.823Z,0
2019-01-03T05:24:19.176Z,0
2019-01-03T05:25:20.556Z,0
2019-01-03T05:26:21.908Z,0
2019-01-03T05:27:23.293Z,0
2019-01-03T05:28:24.665Z,0
2019-01-03T05:29:26.041Z,0
2019-01-03T05:30:27.429Z,0
2019-01-03T05:31:28.794Z,0
2019-01-03T05:32:30.194Z,0
2019-01-03T05:33:31.548Z,0
2019-01-03T05:34:32.949Z,0
2019-01-03T05:35:34.362Z,0
2019-01-03T05:36:35.731Z,0
2019-01-03T05:37:37.107Z,0
2019-01-03T05:38:38.468Z,0
2019-01-03T05:39:39.838Z,0
2019-01-03T05:40:41.207Z,0
2019-01-03T05:41:42.582Z,0
2019-01-03T05:42:43.941Z,0
2019-01-03T05:43:45.333Z,0
2019-01-03T05:44:46.702Z,0
2019-01-03T05:45:48.062Z,0
2019-01-03T05:46:49.428Z,0
2019-01-03T05:47:50.803Z,0
2019-01-03T05:48:52.166Z,0
2019-01-03T05:49:53.535Z,0
2019-01-03T05:50:54.931Z,0
2019-01-03T05:51:56.297Z,0
2019-01-03T05:52:57.658Z,0
2019-01-03T05:53:59.025Z,0
2019-01-03T05:55:00.415Z,0
2019-01-03T05:56:01.770Z,0
2019-01-03T05:57:03.136Z,0
2019-01-03T05:58:04.517Z,0
2019-01-03T05:59:05.893Z,0
2019-01-03T06:00:07.255Z,0
2019-01-03T06:01:08.626Z,0
2019-01-03T06:02:10.006Z,0
2019-01-03T06:03:11.381Z,0
2019-01-03T06:04:12.743Z,0
2019-01-03T06:05:14.119Z,0
2019-01-03T06:06:15.505Z,0
2019-01-03T06:07:16.880Z,0
2019-01-03T06:08:18.249Z,0
2019-01-03T06:09:19.615Z,0
2019-01-03T06:10:21.023Z,0
2019-01-03T06:11:22.408Z,0
2019-01-03T06:12:23.761Z,0
2019-01-03T06:13:25.141Z,0
2019-01-03T06:14:26.503Z,0
2019-01-03T06:15:27.888Z,0
2019-01-03T06:16:29.343Z,0
2019-01-03T06:17:30.708Z,0
2019-01-03T06:18:32.103Z,0
2019-01-03T06:19:33.472Z,0
2019-01-03T06:20:34.841Z,0
2019-01-03T06:21:36.262Z,0
2019-01-03T06:22:37.650Z,0
2019-01-03T06:23:39.022Z,0
2019-01-03T06:24:40.421Z,0
2019-01-03T06:25:41.812Z,0
2019-01-03T06:26:43.183Z,0
2019-01-03T06:27:44.564Z,0
2019-01-03T06:28:45.920Z,0
2019-01-03T06:29:47.278Z,0
2019-01-03T06:30:48.648Z,0
2019-01-03T06:31:50.015Z,0
2019-01-03T06:32:51.392Z,0
2019-01-03T06:33:52.845Z,0
2019-01-03T06:34:54.217Z,0
2019-01-03T06:35:55.593Z,0
2019-01-03T06:36:56.948Z,0
2019-01-03T06:37:58.386Z,0
2019-01-03T06:38:59.764Z,0
2019-01-03T06:40:01.139Z,0
2019-01-03T06:41:02.534Z,0
2019-01-03T06:42:03.877Z,0
2019-01-03T06:43:05.241Z,0
2019-01-03T06:44:06.655Z,0
2019-01-03T06:45:08.006Z,0
2019-01-03T06:46:09.388Z,0
2019-01-03T06:47:10.760Z,0
2019-01-03T06:48:12.140Z,0
2019-01-03T06:49:13.507Z,0
2019-01-03T06:50:14.969Z,0
2019-01-03T06:51:16.352Z,0
2019-01-03T06:52:17.753Z,0
2019-01-03T06:53:19.139Z,0
2019-01-03T06:54:20.518Z,0
2019-01-03T06:55:21.888Z,0
2019-01-03T06:56:23.321Z,0
2019-01-03T06:57:24.696Z,0
2019-01-03T06:58:26.066Z,0
2019-01-03T06:59:27.546Z,0
2019-01-03T07:00:28.931Z,0
2019-01-03T07:01:30.318Z,0
2019-01-03T07:02:31.686Z,0
2019-01-03T07:03:33.049Z,0
2019-01-03T07:04:34.439Z,0
2019-01-03T07:05:35.807Z,0
2019-01-03T07:06:37.225Z,0
2019-01-03T07:07:38.593Z,0
2019-01-03T07:08:39.952Z,0
2019-01-03T07:09:41.328Z,0
2019-01-03T07:10:42.691Z,0
2019-01-03T07:11:44.064Z,0
2019-01-03T07:12:45.438Z,0
2019-01-03T07:13:46.799Z,0
2019-01-03T07:14:48.170Z,0
2019-01-03T07:15:49.539Z,0
2019-01-03T07:16:50.944Z,0
2019-01-03T07:17:52.334Z,0
2019-01-03T07:18:53.692Z,0
2019-01-03T07:19:55.065Z,0
2019-01-03T07:20:56.438Z,4
2019-01-03T07:21:57.806Z,4
2019-01-03T07:22:59.183Z,4
2019-01-03T07:24:00.573Z,4
2019-01-03T07:25:01.943Z,4
2019-01-03T07:26:03.306Z,4
2019-01-03T07:27:04.694Z,4
2019-01-03T07:28:06.080Z,4
2019-01-03T07:29:07.446Z,4
2019-01-03T07:30:08.829Z,4
2019-01-03T07:31:10.193Z,4
2019-01-03T07:32:11.599Z,4
2019-01-03T07:33:12.997Z,4
2019-01-03T07:34:14.366Z,4
2019-01-03T07:35:15.735Z,4
2019-01-03T07:36:17.106Z,0
2019-01-03T07:37:18.491Z,0
2019-01-03T07:38:19.873Z,0
2019-01-03T07:39:21.260Z,0
2019-01-03T07:40:22.637Z,0
2019-01-03T07:41:24.008Z,0
2019-01-03T07:42:25.365Z,0
2019-01-03T07:43:26.743Z,0
2019-01-03T07:44:28.115Z,0
2019-01-03T07:45:29.483Z,4
2019-01-03T07:46:30.852Z,4
2019-01-03T07:47:32.220Z,4
2019-01-03T07:48:33.585Z,0
2019-01-03T07:49:34.977Z,0
2019-01-03T07:50:36.347Z,4
2019-01-03T07:51:37.720Z,4
2019-01-03T07:52:39.113Z,4
2019-01-03T07:53:40.504Z,4
2019-01-03T07:54:41.894Z,4
2019-01-03T07:55:43.271Z,4
2019-01-03T07:56:45.027Z,4
2019-01-03T07:57:46.386Z,4
2019-01-03T07:58:47.758Z,4
2019-01-03T07:59:49.133Z,4
2019-01-03T08:00:50.494Z,4
2019-01-03T08:01:52.033Z,4
2019-01-03T08:02:53.409Z,4
2019-01-03T08:03:54.775Z,4
2019-01-03T08:04:56.150Z,4
2019-01-03T08:05:57.516Z,8
2019-01-03T08:06:58.892Z,8
2019-01-03T08:08:00.272Z,8
2019-01-03T08:09:01.771Z,8
2019-01-03T08:10:03.781Z,8
2019-01-03T08:11:05.300Z,8
2019-01-03T08:12:06.700Z,8
2019-01-03T08:13:08.097Z,8
2019-01-03T08:14:09.463Z,8
2019-01-03T08:15:10.866Z,8
2019-01-03T08:16:12.230Z,12
2019-01-03T08:17:13.617Z,12
2019-01-03T08:18:14.993Z,12
2019-01-03T08:19:16.394Z,8
2019-01-03T08:20:17.780Z,12
2019-01-03T08:21:19.198Z,12
2019-01-03T08:22:20.603Z,12
2019-01-03T08:23:22.185Z,12
2019-01-03T08:24:23.573Z,12
2019-01-03T08:25:24.955Z,16
2019-01-03T08:26:26.332Z,16
2019-01-03T08:27:27.712Z,16
2019-01-03T08:28:29.201Z,16
2019-01-03T08:29:30.607Z,16
2019-01-03T08:30:31.990Z,20
2019-01-03T08:31:33.358Z,16
2019-01-03T08:32:34.727Z,20
2019-01-03T08:33:36.105Z,20
2019-01-03T08:34:37.488Z,20
2019-01-03T08:35:38.864Z,24
2019-01-03T08:36:40.256Z,20
2019-01-03T08:37:41.638Z,24
2019-01-03T08:38:43.266Z,24
2019-01-03T08:39:44.652Z,24
2019-01-03T08:40:46.043Z,24
2019-01-03T08:41:47.407Z,24
2019-01-03T08:42:48.793Z,28
2019-01-03T08:43:50.190Z,28
2019-01-03T08:44:51.560Z,32
2019-01-03T08:45:52.947Z,28
2019-01-03T08:46:54.390Z,32
2019-01-03T08:47:55.760Z,32
2019-01-03T08:49:00.483Z,32
2019-01-03T08:49:58.471Z,36
2019-01-03T08:50:59.852Z,32
2019-01-03T08:52:01.244Z,36
2019-01-03T08:53:02.612Z,40
2019-01-03T08:54:03.980Z,44
2019-01-03T08:55:05.401Z,48
2019-01-03T08:56:06.788Z,48
2019-01-03T08:57:08.169Z,56
2019-01-03T08:58:09.542Z,56
2019-01-03T08:59:10.915Z,64
2019-01-03T09:00:12.332Z,72
2019-01-03T09:01:13.705Z,88
2019-01-03T09:02:15.081Z,104
2019-01-03T09:03:16.447Z,296
2019-01-03T09:04:17.836Z,124
2019-01-03T09:05:19.209Z,96
2019-01-03T09:06:20.596Z,92
2019-01-03T09:07:21.993Z,96
2019-01-03T09:08:23.434Z,96
2019-01-03T09:09:24.790Z,100
2019-01-03T09:10:26.152Z,104
2019-01-03T09:11:27.602Z,104
2019-01-03T09:12:28.970Z,104
2019-01-03T09:13:30.357Z,96
2019-01-03T09:14:32.121Z,88
2019-01-03T09:15:33.475Z,76
2019-01-03T09:16:34.849Z,76
2019-01-03T09:17:36.223Z,80
2019-01-03T09:18:37.584Z,76
2019-01-03T09:19:39.004Z,76
2019-01-03T09:20:40.371Z,76
2019-01-03T09:21:41.745Z,80
2019-01-03T09:22:43.108Z,84
2019-01-03T09:23:44.517Z,88
2019-01-03T09:24:45.897Z,88
2019-01-03T09:25:47.304Z,84
2019-01-03T09:26:48.689Z,80
2019-01-03T09:27:50.101Z,76
2019-01-03T09:28:51.628Z,76
2019-01-03T09:29:53.028Z,68
2019-01-03T09:30:54.413Z,72
2019-01-03T09:31:55.781Z,76
2019-01-03T09:32:57.157Z,76
2019-01-03T09:33:58.547Z,76
2019-01-03T09:34:59.916Z,88
2019-01-03T09:36:01.318Z,88
2019-01-03T09:37:02.742Z,96
2019-01-03T09:38:04.120Z,96
2019-01-03T09:39:05.524Z,100
2019-01-03T09:40:06.904Z,108
2019-01-03T09:41:08.241Z,108
2019-01-03T09:42:09.613Z,108
2019-01-03T09:43:11.022Z,116
2019-01-03T09:44:12.430Z,132
2019-01-03T09:45:13.777Z,108
2019-01-03T09:46:15.151Z,112
2019-01-03T09:47:16.561Z,104
2019-01-03T09:48:17.932Z,92
2019-01-03T09:49:19.304Z,88
2019-01-03T09:50:20.680Z,84
2019-01-03T09:51:22.128Z,80
2019-01-03T09:52:23.500Z,72
2019-01-03T09:53:24.879Z,72
2019-01-03T09:54:26.319Z,68
2019-01-03T09:55:27.701Z,64
2019-01-03T09:56:29.096Z,60
2019-01-03T09:57:30.470Z,56
2019-01-03T09:58:31.844Z,56
2019-01-03T09:59:33.208Z,68
2019-01-03T10:00:36.362Z,72
2019-01-03T10:01:37.730Z,76
2019-01-03T10:02:39.207Z,80
2019-01-03T10:03:40.531Z,84
2019-01-03T10:04:41.912Z,96
2019-01-03T10:05:43.297Z,124
2019-01-03T10:06:44.676Z,116
2019-01-03T10:07:46.046Z,112
2019-01-03T10:08:47.417Z,124
2019-01-03T10:09:48.804Z,164
2019-01-03T10:10:50.221Z,136
2019-01-03T10:11:51.603Z,124
2019-01-03T10:12:52.970Z,116
2019-01-03T10:13:54.354Z,116
2019-01-03T10:14:55.759Z,116
2019-01-03T10:15:57.163Z,116
2019-01-03T10:16:58.594Z,116
2019-01-03T10:18:00.034Z,128
2019-01-03T10:19:01.520Z,144
2019-01-03T10:20:02.916Z,156
2019-01-03T10:21:04.384Z,272
2019-01-03T10:22:05.818Z,180
2019-01-03T10:23:07.206Z,228
2019-01-03T10:24:08.565Z,208
2019-01-03T10:25:09.969Z,176
2019-01-03T10:26:11.383Z,212
2019-01-03T10:27:12.919Z,244
2019-01-03T10:28:14.260Z,188
2019-01-03T10:29:15.616Z,188
2019-01-03T10:30:17.001Z,200
2019-01-03T10:31:18.379Z,196
2019-01-03T10:32:19.767Z,176
2019-01-03T10:33:21.170Z,168
2019-01-03T10:34:22.573Z,156
2019-01-03T10:35:23.954Z,140
2019-01-03T10:36:25.329Z,128
2019-01-03T10:37:26.722Z,116
2019-01-03T10:38:28.102Z,100
2019-01-03T10:39:29.500Z,92
2019-01-03T10:40:30.898Z,84
2019-01-03T10:41:32.280Z,76
2019-01-03T10:42:33.680Z,72
2019-01-03T10:43:35.099Z,64
2019-01-03T10:44:36.512Z,56
2019-01-03T10:45:37.912Z,60
2019-01-03T10:46:39.308Z,56
2019-01-03T10:47:40.659Z,52
2019-01-03T10:48:42.028Z,52
2019-01-03T10:49:43.401Z,48
2019-01-03T10:50:44.798Z,48
2019-01-03T10:51:46.186Z,40
2019-01-03T10:52:47.597Z,44
2019-01-03T10:53:48.993Z,44
2019-01-03T10:54:50.486Z,44
2019-01-03T10:55:51.854Z,44
2019-01-03T10:56:53.232Z,48
2019-01-03T10:57:54.654Z,52
2019-01-03T10:58:55.999Z,48
2019-01-03T10:59:57.388Z,48
2019-01-03T11:00:58.756Z,44
2019-01-03T11:02:00.137Z,48
2019-01-03T11:03:01.511Z,48
2019-01-03T11:04:02.880Z,48
2019-01-03T11:05:04.314Z,52
2019-01-03T11:06:05.772Z,52
2019-01-03T11:07:07.144Z,44
2019-01-03T11:08:08.662Z,48
2019-01-03T11:09:10.047Z,48
2019-01-03T11:10:11.456Z,48
2019-01-03T11:11:13.557Z,44
2019-01-03T11:12:14.989Z,48
2019-01-03T11:13:16.363Z,44
2019-01-03T11:14:17.739Z,48
2019-01-03T11:15:19.102Z,44
2019-01-03T11:16:20.473Z,44
2019-01-03T11:17:21.852Z,44
2019-01-03T11:18:23.251Z,40
2019-01-03T11:19:24.626Z,44
2019-01-03T11:20:25.997Z,44
2019-01-03T11:21:27.362Z,48
2019-01-03T11:22:28.748Z,44
2019-01-03T11:23:30.119Z,44
2019-01-03T11:24:31.507Z,36
2019-01-03T11:25:32.923Z,36
2019-01-03T11:26:34.320Z,32
2019-01-03T11:27:35.756Z,36
2019-01-03T11:28:37.257Z,36
2019-01-03T11:29:38.657Z,36
2019-01-03T11:30:40.057Z,36
2019-01-03T11:31:41.423Z,36
2019-01-03T11:32:42.854Z,32
2019-01-03T11:33:44.220Z,32
2019-01-03T11:34:45.585Z,32
2019-01-03T11:35:46.991Z,32
2019-01-03T11:36:48.381Z,32
2019-01-03T11:37:49.809Z,32
2019-01-03T11:38:51.187Z,28
2019-01-03T11:39:52.556Z,32
2019-01-03T11:40:53.922Z,32
2019-01-03T11:41:55.321Z,32
2019-01-03T11:42:56.689Z,32
2019-01-03T11:43:58.102Z,32
2019-01-03T11:44:59.477Z,36
2019-01-03T11:46:00.857Z,32
2019-01-03T11:47:02.230Z,32
2019-01-03T11:48:03.596Z,32
2019-01-03T11:49:05.059Z,32
2019-01-03T11:50:06.498Z,32
2019-01-03T11:51:07.908Z,32
2019-01-03T11:52:10.662Z,32
2019-01-03T11:53:10.656Z,36
2019-01-03T11:54:12.039Z,36
2019-01-03T11:55:13.419Z,36
2019-01-03T11:56:14.802Z,32
2019-01-03T11:57:16.182Z,28
2019-01-03T11:58:17.578Z,28
2019-01-03T11:59:18.933Z,28
2019-01-03T12:00:20.302Z,32
2019-01-03T12:01:21.689Z,36
2019-01-03T12:02:25.764Z,32
2019-01-03T12:03:24.461Z,32
2019-01-03T12:04:25.845Z,32
2019-01-03T12:05:27.264Z,32
2019-01-03T12:06:28.632Z,28
2019-01-03T12:07:30.017Z,28
2019-01-03T12:08:31.399Z,28
2019-01-03T12:09:32.847Z,28
2019-01-03T12:10:34.227Z,28
2019-01-03T12:11:35.613Z,28
2019-01-03T12:12:37.001Z,28
2019-01-03T12:13:38.421Z,28
2019-01-03T12:14:39.971Z,28
2019-01-03T12:15:41.455Z,24
2019-01-03T12:16:42.856Z,24
2019-01-03T12:17:44.463Z,20
2019-01-03T12:18:45.915Z,16
2019-01-03T12:19:47.286Z,16
2019-01-03T12:20:48.772Z,16
2019-01-03T12:21:50.153Z,16
2019-01-03T12:22:51.547Z,16
2019-01-03T12:23:52.924Z,12
2019-01-03T12:24:54.308Z,16
2019-01-03T12:25:55.711Z,16
2019-01-03T12:26:57.081Z,12
2019-01-03T12:27:58.496Z,16
2019-01-03T12:28:59.890Z,12
2019-01-03T12:30:01.237Z,12
2019-01-03T12:31:02.618Z,12
2019-01-03T12:32:04.095Z,12
2019-01-03T12:33:05.510Z,12
2019-01-03T12:34:06.874Z,8
2019-01-03T12:35:08.290Z,8
2019-01-03T12:36:09.692Z,12
2019-01-03T12:37:11.074Z,12
2019-01-03T12:38:12.450Z,12
2019-01-03T12:39:13.815Z,12
2019-01-03T12:40:15.216Z,12
2019-01-03T12:41:16.746Z,16
2019-01-03T12:42:18.121Z,12
2019-01-03T12:43:19.518Z,12
2019-01-03T12:44:20.880Z,16
2019-01-03T12:45:22.257Z,16
2019-01-03T12:46:23.635Z,12
2019-01-03T12:47:25.013Z,12
2019-01-03T12:48:26.393Z,12
2019-01-03T12:49:27.767Z,8
2019-01-03T12:50:29.136Z,8
2019-01-03T12:51:30.512Z,12
2019-01-03T12:52:31.924Z,12
2019-01-03T12:53:33.278Z,12
2019-01-03T12:54:34.684Z,12
2019-01-03T12:55:36.082Z,12
2019-01-03T12:56:37.492Z,12
2019-01-03T12:57:38.869Z,12
2019-01-03T12:58:40.245Z,16
2019-01-03T12:59:41.674Z,16
2019-01-03T13:00:43.063Z,16
2019-01-03T13:01:45.017Z,16
2019-01-03T13:02:46.402Z,16
2019-01-03T13:03:47.775Z,8
2019-01-03T13:04:49.158Z,12
2019-01-03T13:05:50.590Z,12
2019-01-03T13:06:52.004Z,8
2019-01-03T13:07:53.418Z,8
2019-01-03T13:08:54.796Z,12
2019-01-03T13:09:56.290Z,12
2019-01-03T13:10:57.718Z,8
2019-01-03T13:11:59.116Z,12
2019-01-03T13:13:00.524Z,12
2019-01-03T13:14:01.933Z,12
2019-01-03T13:15:03.318Z,12
2019-01-03T13:16:04.713Z,8
2019-01-03T13:17:06.236Z,12
2019-01-03T13:18:07.608Z,12
2019-01-03T13:19:09.034Z,8
2019-01-03T13:20:10.448Z,8
2019-01-03T13:21:12.398Z,8
2019-01-03T13:22:13.831Z,4
2019-01-03T13:23:15.173Z,8
2019-01-03T13:24:16.551Z,8
2019-01-03T13:25:17.921Z,8
2019-01-03T13:26:19.443Z,8
2019-01-03T13:27:20.831Z,8
2019-01-03T13:28:22.376Z,8
2019-01-03T13:29:23.835Z,12
2019-01-03T13:30:25.233Z,8
2019-01-03T13:31:26.623Z,8
2019-01-03T13:32:27.992Z,12
2019-01-03T13:33:29.382Z,16
2019-01-03T13:34:30.753Z,12
2019-01-03T13:35:32.139Z,12
2019-01-03T13:36:33.526Z,12
2019-01-03T13:37:34.895Z,12
2019-01-03T13:38:36.272Z,12
2019-01-03T13:39:37.683Z,8
2019-01-03T13:40:39.067Z,8
2019-01-03T13:41:40.461Z,8
2019-01-03T13:42:41.994Z,12
2019-01-03T13:43:43.351Z,12
2019-01-03T13:44:44.766Z,12
2019-01-03T13:45:46.254Z,12
2019-01-03T13:46:47.767Z,12
2019-01-03T13:47:49.167Z,8
2019-01-03T13:48:50.594Z,8
2019-01-03T13:49:51.987Z,8
2019-01-03T13:50:53.798Z,8
2019-01-03T13:51:55.141Z,8
2019-01-03T13:52:56.874Z,8
2019-01-03T13:53:58.338Z,8
2019-01-03T13:54:59.782Z,8
2019-01-03T13:56:01.148Z,8
2019-01-03T13:57:02.530Z,8
2019-01-03T13:58:03.900Z,8
2019-01-03T13:59:05.290Z,8
2019-01-03T14:00:06.743Z,8
2019-01-03T14:01:08.112Z,8
2019-01-03T14:02:09.508Z,4
2019-01-03T14:03:10.875Z,8
2019-01-03T14:04:12.492Z,8
2019-01-03T14:05:13.864Z,8
2019-01-03T14:06:15.238Z,8
2019-01-03T14:07:16.608Z,8
2019-01-03T14:08:18.011Z,8
2019-01-03T14:09:19.378Z,4
2019-01-03T14:10:20.769Z,4
2019-01-03T14:11:22.161Z,4
2019-01-03T14:12:23.615Z,4
2019-01-03T14:13:25.028Z,8
2019-01-03T14:14:26.396Z,8
2019-01-03T14:15:27.980Z,8
2019-01-03T14:16:29.394Z,8
2019-01-03T14:17:30.799Z,4
2019-01-03T14:18:32.185Z,8
2019-01-03T14:19:33.555Z,4
2019-01-03T14:20:34.938Z,4
2019-01-03T14:21:36.318Z,4
2019-01-03T14:22:37.833Z,8
2019-01-03T14:23:39.202Z,8
2019-01-03T14:24:40.598Z,8
2019-01-03T14:25:42.013Z,8
2019-01-03T14:26:43.462Z,12
2019-01-03T14:27:44.856Z,12
2019-01-03T14:28:46.245Z,8
2019-01-03T14:29:47.611Z,8
2019-01-03T14:30:48.998Z,8
2019-01-03T14:31:50.392Z,12
2019-01-03T14:32:51.776Z,12
2019-01-03T14:33:53.155Z,12
2019-01-03T14:34:54.748Z,12
2019-01-03T14:35:56.115Z,12
2019-01-03T14:36:58.698Z,8
2019-01-03T14:37:58.954Z,12
2019-01-03T14:39:00.325Z,8
2019-01-03T14:40:01.682Z,8
2019-01-03T14:41:03.078Z,8
2019-01-03T14:42:04.460Z,8
2019-01-03T14:43:05.848Z,8
2019-01-03T14:44:07.294Z,8
2019-01-03T14:45:08.689Z,8
2019-01-03T14:46:10.111Z,8
2019-01-03T14:47:11.500Z,8
2019-01-03T14:48:12.912Z,8
2019-01-03T14:49:14.281Z,4
2019-01-03T14:50:15.721Z,8
2019-01-03T14:51:17.093Z,8
2019-01-03T14:52:18.575Z,8
2019-01-03T14:53:19.978Z,8
2019-01-03T14:54:21.384Z,8